createdAt,value
2023-02-15T00:02:06.419Z,0.90
2023-02-15T00:04:47.936Z,0.30
2023-02-15T00:07:19.456Z,0.50
2023-02-15T00:09:48.104Z,0.50
2023-02-15T00:12:17.007Z,0.63
2023-02-15T00:14:44.946Z,0.47
2023-02-15T00:17:12.837Z,0.50
2023-02-15T00:19:41.015Z,0.30
2023-02-15T00:22:09.159Z,0.30
2023-02-15T00:24:38.369Z,0.73
2023-02-15T00:27:06.266Z,1.00
2023-02-15T00:29:34.204Z,0.60
2023-02-15T00:32:02.127Z,0.77
2023-02-15T00:34:30.544Z,0.60
2023-02-15T00:36:58.706Z,0.47
2023-02-15T00:39:28.185Z,0.60
2023-02-15T00:41:57.409Z,0.73
2023-02-15T00:44:25.252Z,0.70
2023-02-15T00:46:53.163Z,1.90
2023-02-15T00:49:21.023Z,1.03
2023-02-15T00:51:49.059Z,0.30
2023-02-15T00:54:16.903Z,0.83
2023-02-15T00:56:44.775Z,0.40
2023-02-15T00:59:14.151Z,0.77
2023-02-15T01:01:42.022Z,0.47
2023-02-15T01:04:09.982Z,0.40
2023-02-15T01:06:37.885Z,0.50
2023-02-15T01:09:05.766Z,0.37
2023-02-15T01:11:33.667Z,1.27
2023-02-15T01:14:01.568Z,0.80
2023-02-15T01:16:31.478Z,0.40
2023-02-15T01:18:59.339Z,0.30
2023-02-15T01:21:28.423Z,0.87
2023-02-15T01:23:56.343Z,0.40
2023-02-15T01:26:24.253Z,0.80
2023-02-15T01:28:52.123Z,0.40
2023-02-15T01:31:22.291Z,0.50
2023-02-15T01:33:52.064Z,0.70
2023-02-15T01:36:19.962Z,0.40
2023-02-15T01:38:47.887Z,0.77
2023-02-15T01:41:24.010Z,0.40
2023-02-15T01:43:54.378Z,0.30
2023-02-15T01:46:26.633Z,0.73
2023-02-15T01:49:02.210Z,0.50
2023-02-15T01:51:32.932Z,0.30
2023-02-15T01:54:06.775Z,0.50
2023-02-15T01:56:37.372Z,0.90
2023-02-15T01:59:09.918Z,0.37
2023-02-15T02:01:38.425Z,0.50
2023-02-15T02:04:15.035Z,0.40
2023-02-15T02:06:43.560Z,0.40
2023-02-15T02:09:11.475Z,0.60
2023-02-15T02:11:41.369Z,0.40
2023-02-15T02:14:09.916Z,1.13
2023-02-15T02:16:47.487Z,0.60
2023-02-15T02:19:59.348Z,0.50
2023-02-15T02:23:01.073Z,0.40
2023-02-15T02:26:14.544Z,0.77
2023-02-15T02:29:17.739Z,0.60
2023-02-15T02:32:18.483Z,0.40
2023-02-15T02:34:54.331Z,0.40
2023-02-15T02:37:30.147Z,1.07
2023-02-15T02:40:06.658Z,0.70
2023-02-15T02:42:40.145Z,0.50
2023-02-15T02:45:11.400Z,1.00
2023-02-15T02:47:45.163Z,0.40
2023-02-15T02:50:18.394Z,0.60
2023-02-15T02:52:48.200Z,1.10
2023-02-15T02:55:21.293Z,0.40
2023-02-15T02:57:56.025Z,0.30
2023-02-15T03:00:27.561Z,0.30
2023-02-15T03:03:05.840Z,0.50
2023-02-15T03:05:39.759Z,0.77
2023-02-15T03:08:10.710Z,0.53
2023-02-15T03:10:41.278Z,0.30
2023-02-15T03:13:10.608Z,1.50
2023-02-15T03:15:59.565Z,0.40
2023-02-15T03:18:33.331Z,0.30
2023-02-15T03:21:04.827Z,0.30
2023-02-15T03:23:34.489Z,0.90
2023-02-15T03:26:05.123Z,0.50
2023-02-15T03:28:37.803Z,0.67
2023-02-15T03:31:08.893Z,0.50
2023-02-15T03:33:41.925Z,0.50
2023-02-15T03:36:20.138Z,0.30
2023-02-15T03:38:53.748Z,0.63
2023-02-15T03:41:24.957Z,0.30
2023-02-15T03:43:57.193Z,0.30
2023-02-15T03:46:30.113Z,0.70
2023-02-15T03:49:03.237Z,0.50
2023-02-15T03:51:36.316Z,1.13
2023-02-15T03:54:08.330Z,0.40
2023-02-15T03:56:38.211Z,0.60
2023-02-15T03:59:24.068Z,0.50
2023-02-15T04:02:03.807Z,0.40
2023-02-15T04:04:37.094Z,0.60
2023-02-15T04:07:09.165Z,0.60
2023-02-15T04:09:55.306Z,0.30
2023-02-15T04:12:23.295Z,0.63
2023-02-15T04:15:08.797Z,0.40
2023-02-15T04:17:38.172Z,0.40
2023-02-15T04:20:24.600Z,1.47
2023-02-15T04:23:11.859Z,0.40
2023-02-15T04:25:39.798Z,0.87
2023-02-15T04:28:08.559Z,0.83
2023-02-15T04:30:36.544Z,0.40
2023-02-15T04:33:04.586Z,0.40
2023-02-15T04:35:32.740Z,0.30
2023-02-15T04:38:02.290Z,0.50
2023-02-15T04:40:30.831Z,0.30
2023-02-15T04:42:58.776Z,0.50
2023-02-15T04:45:28.114Z,0.40
2023-02-15T04:47:56.199Z,0.40
2023-02-15T04:50:24.391Z,0.30
2023-02-15T04:52:52.336Z,0.43
2023-02-15T04:55:21.662Z,0.50
2023-02-15T04:57:49.579Z,0.30
2023-02-15T05:00:18.060Z,0.53
2023-02-15T05:02:46.011Z,0.50
2023-02-15T05:05:16.063Z,0.30
2023-02-15T05:07:43.903Z,0.40
2023-02-15T05:10:11.885Z,1.00
2023-02-15T05:12:41.119Z,0.37
2023-02-15T05:15:09.868Z,0.40
2023-02-15T05:17:37.890Z,0.40
2023-02-15T05:20:07.299Z,0.73
2023-02-15T05:22:35.190Z,1.23
2023-02-15T05:25:34.978Z,0.67
2023-02-15T05:28:22.213Z,0.77
2023-02-15T05:30:51.028Z,0.60
2023-02-15T05:33:19.678Z,0.80
2023-02-15T05:35:47.569Z,0.40
2023-02-15T05:38:15.469Z,1.07
2023-02-15T05:40:43.360Z,0.30
2023-02-15T05:43:12.609Z,0.40
2023-02-15T05:45:40.624Z,0.30
2023-02-15T05:48:08.526Z,0.30
2023-02-15T05:50:36.409Z,0.60
2023-02-15T05:53:04.340Z,0.60
2023-02-15T05:55:32.298Z,0.70
2023-02-15T05:58:00.258Z,0.67
2023-02-15T06:00:29.530Z,0.67
2023-02-15T06:02:57.479Z,0.30
2023-02-15T06:05:25.406Z,0.30
2023-02-15T06:07:53.316Z,0.40
2023-02-15T06:10:21.905Z,0.90
2023-02-15T06:12:49.828Z,0.40
2023-02-15T06:15:17.913Z,0.60
2023-02-15T06:17:47.201Z,0.40
2023-02-15T06:20:15.373Z,0.50
2023-02-15T06:22:43.334Z,1.03
2023-02-15T06:25:12.242Z,0.30
2023-02-15T06:27:42.851Z,0.50
2023-02-15T06:30:12.230Z,0.30
2023-02-15T06:32:41.482Z,0.50
2023-02-15T06:35:10.901Z,0.37
2023-02-15T06:37:38.861Z,0.53
2023-02-15T06:40:08.192Z,0.40
2023-02-15T06:42:36.068Z,0.30
2023-02-15T06:45:04.489Z,0.50
2023-02-15T06:47:32.464Z,0.73
2023-02-15T06:50:00.351Z,0.60
2023-02-15T06:52:30.514Z,0.70
2023-02-15T06:54:59.150Z,0.40
2023-02-15T06:57:27.112Z,0.67
2023-02-15T06:59:54.984Z,0.77
2023-02-15T07:02:22.892Z,0.53
2023-02-15T07:04:50.833Z,0.47
2023-02-15T07:07:19.192Z,0.40
2023-02-15T07:09:48.489Z,0.80
2023-02-15T07:12:34.064Z,0.90
2023-02-15T07:15:01.939Z,0.60
2023-02-15T07:17:38.050Z,0.40
2023-02-15T07:20:08.734Z,0.87
2023-02-15T07:22:38.166Z,0.30
2023-02-15T07:25:09.224Z,0.40
2023-02-15T07:27:37.238Z,0.43
2023-02-15T07:30:06.225Z,0.90
2023-02-15T07:32:35.318Z,0.93
2023-02-15T07:35:03.276Z,1.23
2023-02-15T07:37:31.237Z,0.40
2023-02-15T07:39:59.134Z,0.30
2023-02-15T07:42:28.406Z,1.00
2023-02-15T07:44:56.272Z,0.40
2023-02-15T07:47:24.158Z,0.47
2023-02-15T07:49:52.054Z,1.07
2023-02-15T07:52:20.298Z,0.50
2023-02-15T07:54:48.219Z,0.40
2023-02-15T07:57:16.128Z,0.60
2023-02-15T07:59:45.431Z,0.57
2023-02-15T08:02:13.464Z,0.90
2023-02-15T08:04:41.497Z,0.80
2023-02-15T08:07:09.424Z,0.30
2023-02-15T08:09:37.443Z,0.67
2023-02-15T08:12:06.209Z,0.40
2023-02-15T08:14:34.266Z,0.73
2023-02-15T08:17:05.962Z,1.00
2023-02-15T08:19:35.454Z,0.43
2023-02-15T08:22:05.298Z,0.70
2023-02-15T08:24:35.014Z,0.60
2023-02-15T08:27:06.147Z,0.90
2023-02-15T08:29:36.089Z,0.40
2023-02-15T08:32:07.132Z,1.23
2023-02-15T08:34:37.706Z,0.80
2023-02-15T08:37:07.003Z,0.80
2023-02-15T08:39:35.445Z,0.50
2023-02-15T08:42:03.458Z,0.77
2023-02-15T08:44:31.404Z,0.63
2023-02-15T08:47:03.789Z,0.73
2023-02-15T08:49:33.498Z,0.83
2023-02-15T08:52:01.682Z,0.40
2023-02-15T08:54:29.704Z,0.40
2023-02-15T08:56:57.841Z,0.83
2023-02-15T08:59:27.778Z,0.50
2023-02-15T09:01:56.325Z,0.97
2023-02-15T09:04:24.563Z,0.40
2023-02-15T09:06:54.095Z,0.60
2023-02-15T09:09:22.625Z,0.37
2023-02-15T09:11:57.725Z,0.70
2023-02-15T09:14:27.966Z,0.40
2023-02-15T09:16:56.452Z,0.60
2023-02-15T09:19:25.398Z,0.50
2023-02-15T09:21:54.963Z,0.40
2023-02-15T09:24:23.232Z,0.80
2023-02-15T09:26:51.173Z,0.77
2023-02-15T09:29:20.730Z,0.70
2023-02-15T09:31:50.833Z,0.53
2023-02-15T09:34:20.885Z,1.17
2023-02-15T09:36:49.953Z,0.37
2023-02-15T09:39:20.449Z,0.50
2023-02-15T09:42:14.990Z,0.60
2023-02-15T09:45:07.926Z,0.50
2023-02-15T09:47:52.774Z,0.57
2023-02-15T09:50:26.694Z,0.70
2023-02-15T09:53:16.364Z,0.40
2023-02-15T09:55:55.085Z,0.40
2023-02-15T09:58:34.748Z,0.90
2023-02-15T10:01:11.344Z,1.30
2023-02-15T10:04:00.859Z,0.83
2023-02-15T10:06:42.603Z,0.70
2023-02-15T10:09:28.662Z,0.60
2023-02-15T10:12:14.976Z,0.60
2023-02-15T10:14:57.179Z,0.60
2023-02-15T10:17:36.920Z,1.00
2023-02-15T10:20:19.047Z,0.93
2023-02-15T10:23:00.041Z,1.20
2023-02-15T10:25:38.218Z,0.60
2023-02-15T10:28:11.220Z,0.90
2023-02-15T10:30:46.194Z,0.97
2023-02-15T10:33:26.798Z,0.93
2023-02-15T10:36:06.347Z,1.20
2023-02-15T10:38:42.223Z,1.40
2023-02-15T10:41:19.783Z,0.50
2023-02-15T10:44:02.165Z,1.97
2023-02-15T10:46:49.788Z,0.60
2023-02-15T10:49:34.951Z,0.90
2023-02-15T10:52:22.158Z,0.60
2023-02-15T10:55:00.513Z,1.10
2023-02-15T10:57:36.149Z,1.00
2023-02-15T11:00:15.501Z,1.00
2023-02-15T11:03:18.734Z,0.90
2023-02-15T11:05:59.390Z,0.90
2023-02-15T11:08:31.565Z,1.20
2023-02-15T11:11:03.146Z,0.50
2023-02-15T11:13:35.822Z,0.50
2023-02-15T11:16:08.433Z,1.03
2023-02-15T11:18:39.810Z,0.83
2023-02-15T11:21:13.255Z,0.80
2023-02-15T11:23:45.795Z,0.60
2023-02-15T11:26:17.769Z,1.03
2023-02-15T11:28:50.281Z,1.30
2023-02-15T11:31:22.302Z,1.03
2023-02-15T11:33:53.437Z,0.77
2023-02-15T11:36:24.507Z,0.87
2023-02-15T11:38:58.618Z,0.60
2023-02-15T11:41:30.466Z,1.40
2023-02-15T11:44:06.948Z,0.77
2023-02-15T11:46:38.381Z,0.97
2023-02-15T11:49:14.771Z,0.87
2023-02-15T11:51:43.003Z,0.87
2023-02-15T11:54:11.226Z,0.77
2023-02-15T11:56:39.416Z,1.00
2023-02-15T11:59:13.609Z,0.60
2023-02-15T12:01:45.593Z,1.33
2023-02-15T12:04:22.960Z,0.70
2023-02-15T12:07:02.336Z,1.60
2023-02-15T12:09:36.392Z,0.57
2023-02-15T12:12:23.912Z,0.97
2023-02-15T12:14:53.402Z,0.83
2023-02-15T12:17:26.623Z,1.80
2023-02-15T12:19:57.038Z,2.20
2023-02-15T12:22:27.160Z,0.80
2023-02-15T12:24:58.522Z,0.70
2023-02-15T12:27:29.039Z,1.03
2023-02-15T12:30:02.068Z,1.03
2023-02-15T12:32:36.637Z,1.30
2023-02-15T12:35:11.808Z,1.37
2023-02-15T12:37:39.926Z,0.80
2023-02-15T12:40:22.278Z,1.03
2023-02-15T12:42:50.433Z,0.97
2023-02-15T12:45:28.074Z,1.00
2023-02-15T12:48:18.194Z,0.80
2023-02-15T12:50:47.400Z,1.27
2023-02-15T12:53:20.016Z,1.30
2023-02-15T12:55:53.668Z,1.90
2023-02-15T12:58:24.442Z,1.60
2023-02-15T13:01:06.147Z,4.20
2023-02-15T13:03:35.879Z,3.80
2023-02-15T13:06:08.237Z,2.20
2023-02-15T13:08:40.053Z,1.43
2023-02-15T13:11:11.146Z,2.30
2023-02-15T13:13:52.902Z,1.80
2023-02-15T13:16:29.091Z,1.23
2023-02-15T13:19:00.119Z,0.97
2023-02-15T13:21:33.843Z,0.90
2023-02-15T13:24:06.825Z,1.90
2023-02-15T13:26:36.790Z,1.20
2023-02-15T13:29:10.584Z,2.00
2023-02-15T13:31:40.696Z,2.10
2023-02-15T13:34:14.549Z,1.37
2023-02-15T13:36:51.530Z,1.93
2023-02-15T13:39:31.436Z,1.33
2023-02-15T13:42:06.208Z,1.83
2023-02-15T13:44:58.849Z,1.70
2023-02-15T13:47:33.508Z,1.23
2023-02-15T13:50:19.959Z,1.90
2023-02-15T13:52:53.271Z,2.23
2023-02-15T13:55:40.911Z,1.50
2023-02-15T13:58:42.935Z,1.40
2023-02-15T14:01:12.836Z,2.43
2023-02-15T14:04:13.228Z,1.73
2023-02-15T14:06:53.623Z,1.70
2023-02-15T14:09:31.978Z,1.83
2023-02-15T14:12:14.813Z,1.53
2023-02-15T14:14:58.868Z,1.00
2023-02-15T14:17:36.733Z,2.03
2023-02-15T14:20:09.250Z,1.67
2023-02-15T14:22:43.632Z,1.73
2023-02-15T14:25:27.182Z,1.43
2023-02-15T14:28:04.660Z,1.47
2023-02-15T14:30:36.878Z,1.50
2023-02-15T14:33:09.876Z,1.17
2023-02-15T14:35:39.129Z,1.50
2023-02-15T14:38:17.292Z,4.25
2023-02-15T14:41:03.118Z,4.10
2023-02-15T14:43:47.294Z,4.95
2023-02-15T14:46:25.398Z,4.47
2023-02-15T14:48:55.850Z,4.70
2023-02-15T14:52:01.685Z,5.18
2023-02-15T14:54:59.679Z,4.60
2023-02-15T14:57:35.397Z,5.65
2023-02-15T15:00:38.969Z,5.00
2023-02-15T15:03:22.350Z,4.50
2023-02-15T15:05:53.610Z,5.28
2023-02-15T15:08:30.977Z,5.10
2023-02-15T15:11:43.786Z,6.20
2023-02-15T15:14:43.636Z,5.40
2023-02-15T15:17:14.576Z,2.30
2023-02-15T15:20:24.246Z,1.83
2023-02-15T15:22:52.244Z,1.47
2023-02-15T15:25:44.662Z,2.60
2023-02-15T15:28:53.170Z,2.03
2023-02-15T15:31:27.872Z,1.20
2023-02-15T15:34:30.004Z,1.80
2023-02-15T15:37:36.796Z,1.13
2023-02-15T15:40:52.784Z,1.47
2023-02-15T15:43:54.895Z,1.73
2023-02-15T15:46:54.610Z,2.93
2023-02-15T15:49:25.518Z,1.10
2023-02-15T15:51:54.082Z,1.30
2023-02-15T15:54:25.023Z,0.70
2023-02-15T15:56:56.708Z,1.50
2023-02-15T15:59:27.806Z,1.40
2023-02-15T16:01:57.619Z,2.40
2023-02-15T16:04:28.785Z,1.57
2023-02-15T16:06:56.707Z,2.10
2023-02-15T16:09:26.966Z,1.07
2023-02-15T16:11:59.319Z,1.17
2023-02-15T16:14:31.449Z,1.17
2023-02-15T16:17:04.209Z,1.43
2023-02-15T16:19:35.638Z,1.40
2023-02-15T16:22:05.376Z,1.50
2023-02-15T16:24:40.385Z,2.60
2023-02-15T16:27:35.367Z,1.93
2023-02-15T16:30:22.094Z,1.50
2023-02-15T16:32:54.465Z,1.33
2023-02-15T16:35:24.115Z,2.00
2023-02-15T16:37:52.238Z,2.27
2023-02-15T16:40:33.249Z,2.10
2023-02-15T16:43:04.707Z,1.90
2023-02-15T16:45:33.967Z,1.57
2023-02-15T16:48:07.454Z,1.47
2023-02-15T16:50:38.368Z,2.50
2023-02-15T16:53:09.093Z,1.30
2023-02-15T16:55:41.581Z,2.10
2023-02-15T16:58:15.865Z,2.20
2023-02-15T17:00:44.265Z,1.70
2023-02-15T17:03:25.654Z,2.70
2023-02-15T17:05:54.992Z,0.90
2023-02-15T17:08:29.315Z,2.30
2023-02-15T17:11:17.028Z,1.27
2023-02-15T17:14:21.732Z,2.57
2023-02-15T17:16:52.609Z,1.13
2023-02-15T17:19:25.161Z,1.27
2023-02-15T17:21:55.871Z,0.93
2023-02-15T17:24:36.889Z,1.23
2023-02-15T17:27:08.026Z,0.50
2023-02-15T17:29:39.308Z,1.63
2023-02-15T17:32:14.917Z,0.60
2023-02-15T17:34:48.200Z,1.17
2023-02-15T17:37:26.514Z,1.27
2023-02-15T17:39:54.634Z,0.80
2023-02-15T17:42:22.610Z,0.90
2023-02-15T17:44:50.718Z,1.20
2023-02-15T17:47:21.181Z,0.90
2023-02-15T17:49:51.058Z,1.00
2023-02-15T17:52:19.570Z,1.33
2023-02-15T17:55:05.382Z,0.70
2023-02-15T17:57:33.628Z,1.30
2023-02-15T18:00:18.851Z,1.03
2023-02-15T18:03:05.270Z,0.60
2023-02-15T18:05:52.125Z,0.63
2023-02-15T18:08:41.432Z,1.20
2023-02-15T18:11:29.424Z,0.60
2023-02-15T18:14:01.339Z,1.57
2023-02-15T18:16:33.143Z,0.70
2023-02-15T18:19:01.772Z,0.97
2023-02-15T18:21:31.101Z,0.60
2023-02-15T18:23:59.091Z,1.43
2023-02-15T18:26:28.262Z,0.70
2023-02-15T18:28:56.399Z,1.83
2023-02-15T18:31:25.107Z,0.53
2023-02-15T18:33:55.842Z,1.10
2023-02-15T18:36:27.979Z,0.60
2023-02-15T18:38:57.930Z,0.50
2023-02-15T18:41:25.986Z,1.00
2023-02-15T18:43:55.445Z,0.60
2023-02-15T18:46:23.406Z,1.50
2023-02-15T18:48:51.332Z,1.50
2023-02-15T18:51:21.826Z,0.97
2023-02-15T18:53:52.341Z,0.50
2023-02-15T18:56:24.010Z,0.40
2023-02-15T18:58:52.026Z,1.17
2023-02-15T19:01:21.655Z,1.33
2023-02-15T19:03:51.827Z,0.70
2023-02-15T19:06:21.498Z,0.50
2023-02-15T19:08:52.229Z,1.07
2023-02-15T19:11:23.577Z,1.40
2023-02-15T19:13:53.044Z,0.97
2023-02-15T19:16:29.084Z,4.28
2023-02-15T19:18:57.171Z,4.50
2023-02-15T19:21:25.594Z,5.38
2023-02-15T19:23:57.056Z,5.25
2023-02-15T19:26:43.151Z,4.45
2023-02-15T19:29:15.056Z,4.13
2023-02-15T19:31:43.300Z,4.57
2023-02-15T19:34:15.293Z,4.78
2023-02-15T19:36:44.221Z,4.65
2023-02-15T19:39:24.502Z,4.53
2023-02-15T19:41:54.001Z,3.73
2023-02-15T19:44:22.313Z,4.28
2023-02-15T19:46:50.435Z,4.55
2023-02-15T19:49:18.353Z,4.32
2023-02-15T19:51:47.550Z,3.47
2023-02-15T19:54:31.676Z,4.75
2023-02-15T19:57:01.390Z,4.15
2023-02-15T19:59:34.010Z,4.55
2023-02-15T20:02:01.925Z,4.70
2023-02-15T20:04:29.895Z,4.60
2023-02-15T20:07:01.197Z,4.70
2023-02-15T20:09:32.724Z,4.90
2023-02-15T20:12:02.276Z,5.28
2023-02-15T20:14:30.424Z,4.70
2023-02-15T20:16:58.352Z,4.75
2023-02-15T20:19:26.258Z,5.03
2023-02-15T20:22:02.012Z,4.47
2023-02-15T20:24:30.833Z,5.35
2023-02-15T20:26:58.712Z,5.10
2023-02-15T20:29:27.973Z,5.33
2023-02-15T20:32:00.950Z,5.30
2023-02-15T20:34:29.026Z,4.57
2023-02-15T20:36:56.960Z,4.20
2023-02-15T20:39:24.893Z,3.47
2023-02-15T20:41:52.795Z,4.50
2023-02-15T20:44:24.539Z,3.50
2023-02-15T20:46:55.664Z,5.10
2023-02-15T20:49:25.045Z,5.20
2023-02-15T20:51:53.774Z,4.60
2023-02-15T20:54:23.877Z,4.70
2023-02-15T20:56:52.045Z,4.65
2023-02-15T20:59:24.358Z,4.87
2023-02-15T21:01:58.422Z,5.22
2023-02-15T21:04:31.063Z,5.00
2023-02-15T21:06:59.439Z,5.20
2023-02-15T21:09:27.773Z,4.75
2023-02-15T21:11:57.636Z,5.32
2023-02-15T21:14:27.674Z,5.22
2023-02-15T21:16:56.895Z,4.50
2023-02-15T21:19:26.406Z,5.57
2023-02-15T21:21:55.168Z,4.18
2023-02-15T21:24:25.653Z,5.07
2023-02-15T21:26:55.133Z,5.13
2023-02-15T21:29:25.489Z,4.40
2023-02-15T21:31:53.925Z,0.80
2023-02-15T21:34:23.258Z,0.93
2023-02-15T21:36:51.646Z,1.50
2023-02-15T21:39:22.275Z,4.72
2023-02-15T21:42:09.616Z,4.30
2023-02-15T21:44:55.153Z,4.78
2023-02-15T21:47:42.601Z,4.35
2023-02-15T21:50:34.113Z,5.15
2023-02-15T21:53:03.456Z,5.90
2023-02-15T21:55:32.350Z,4.75
2023-02-15T21:58:00.484Z,4.50
2023-02-15T22:00:29.201Z,5.75
2023-02-15T22:02:59.137Z,4.68
2023-02-15T22:05:31.720Z,4.43
2023-02-15T22:08:00.062Z,5.28
2023-02-15T22:10:30.409Z,4.90
2023-02-15T22:13:00.599Z,3.92
2023-02-15T22:15:33.340Z,4.10
2023-02-15T22:18:01.315Z,5.03
2023-02-15T22:20:30.616Z,3.90
2023-02-15T22:22:58.516Z,3.00
2023-02-15T22:25:27.701Z,3.92
2023-02-15T22:27:56.086Z,3.50
2023-02-15T22:30:27.486Z,3.30
2023-02-15T22:32:56.294Z,3.20
2023-02-15T22:35:26.539Z,3.63
2023-02-15T22:37:56.045Z,4.20
2023-02-15T22:40:29.673Z,3.60
2023-02-15T22:42:59.041Z,3.80
2023-02-15T22:45:29.007Z,4.03
2023-02-15T22:47:58.957Z,4.33
2023-02-15T22:50:29.104Z,4.03
2023-02-15T22:53:00.733Z,3.55
2023-02-15T22:55:32.731Z,3.72
2023-02-15T22:58:01.265Z,3.30
2023-02-15T23:00:39.723Z,3.95
2023-02-15T23:03:15.843Z,3.80
2023-02-15T23:05:44.184Z,3.75
2023-02-15T23:08:13.646Z,3.85
2023-02-15T23:10:43.383Z,3.70
2023-02-15T23:13:25.894Z,3.75
2023-02-15T23:15:57.413Z,4.40
2023-02-15T23:18:28.244Z,3.95
2023-02-15T23:20:58.360Z,3.90
2023-02-15T23:23:32.512Z,2.33
2023-02-15T23:26:04.146Z,2.07
2023-02-15T23:28:35.449Z,2.53
2023-02-15T23:31:03.994Z,1.43
2023-02-15T23:33:34.822Z,0.63
2023-02-15T23:36:02.752Z,1.53
2023-02-15T23:38:33.599Z,0.60
2023-02-15T23:41:21.395Z,0.60
2023-02-15T23:43:53.252Z,0.50
2023-02-15T23:46:25.053Z,1.13
2023-02-15T23:48:53.874Z,1.30
2023-02-15T23:51:22.321Z,0.83
2023-02-15T23:53:51.800Z,0.50
2023-02-15T23:56:19.683Z,1.10
2023-02-15T23:58:48.263Z,0.50
